createdAt,value
2023-04-10T00:08:36.638Z,73.34
2023-04-10T00:12:08.709Z,73.62
2023-04-10T00:15:58.411Z,73.13
2023-04-10T00:19:35.505Z,73.55
2023-04-10T00:23:28.268Z,74.02
2023-04-10T00:27:21.180Z,73.82
2023-04-10T00:30:42.672Z,74.89
2023-04-10T00:34:17.684Z,75.24
2023-04-10T00:42:08.034Z,74.68
2023-04-10T00:46:08.708Z,74.49
2023-04-10T00:49:49.549Z,74.71
2023-04-10T01:02:43.259Z,74.25
2023-04-10T01:06:56.138Z,73.42
2023-04-10T01:10:40.766Z,73.35
2023-04-10T01:26:11.441Z,74.31
2023-04-10T01:29:53.699Z,74.58
2023-04-10T01:33:14.025Z,74.18
2023-04-10T01:36:30.356Z,74.20
2023-04-10T01:39:39.362Z,74.65
2023-04-10T01:43:01.063Z,75.15
2023-04-10T01:46:08.694Z,75.46
2023-04-10T01:49:23.233Z,75.99
2023-04-10T01:52:58.570Z,75.68
2023-04-10T01:56:20.954Z,76.33
2023-04-10T01:59:35.222Z,76.82
2023-04-10T02:02:59.323Z,76.98
2023-04-10T02:06:44.617Z,76.70
2023-04-10T02:10:44.590Z,77.14
2023-04-10T02:14:43.538Z,77.24
2023-04-10T02:18:02.888Z,77.43
2023-04-10T02:21:31.330Z,77.12
2023-04-10T02:24:49.138Z,77.53
2023-04-10T02:28:13.718Z,76.88
2023-04-10T02:31:25.736Z,77.45
2023-04-10T02:34:35.115Z,77.55
2023-04-10T02:37:52.214Z,76.93
2023-04-10T02:41:27.262Z,78.32
2023-04-10T02:44:45.428Z,77.83
2023-04-10T02:47:57.671Z,78.00
2023-04-10T02:55:23.878Z,78.13
2023-04-10T02:58:52.029Z,77.72
2023-04-10T03:06:56.217Z,78.08
2023-04-10T03:10:43.755Z,78.05
2023-04-10T03:14:13.159Z,78.24
2023-04-10T03:17:39.692Z,78.53
2023-04-10T03:21:09.105Z,78.67
2023-04-10T03:24:15.258Z,78.56
2023-04-10T03:27:34.117Z,78.33
2023-04-10T03:30:55.100Z,79.11
2023-04-10T03:34:28.657Z,79.70
2023-04-10T03:37:34.896Z,79.89
2023-04-10T03:40:41.980Z,79.44
2023-04-10T03:43:50.882Z,78.67
2023-04-10T03:46:55.668Z,79.40
2023-04-10T03:50:15.053Z,80.01
2023-04-10T03:53:37.779Z,79.54
2023-04-10T03:57:05.886Z,79.75
2023-04-10T04:00:53.661Z,79.90
2023-04-10T04:04:30.219Z,80.10
2023-04-10T04:08:10.889Z,80.65
2023-04-10T04:11:24.495Z,80.70
2023-04-10T04:14:33.397Z,80.78
2023-04-10T04:18:07.999Z,80.44
2023-04-10T04:21:35.393Z,80.61
2023-04-10T04:25:09.941Z,80.56
2023-04-10T04:28:19.526Z,80.66
2023-04-10T04:31:49.114Z,81.02
2023-04-10T04:39:27.476Z,81.19
2023-04-10T04:43:27.445Z,80.94
2023-04-10T05:15:17.071Z,80.49
2023-04-10T05:18:40.868Z,80.17
2023-04-10T05:22:32.604Z,80.25
2023-04-10T05:25:53.894Z,80.34
2023-04-10T05:29:52.841Z,80.26
2023-04-10T05:33:04.133Z,80.02
2023-04-10T05:40:12.296Z,78.65
2023-04-10T05:43:18.838Z,78.94
2023-04-10T05:46:25.213Z,78.83
2023-04-10T05:49:44.010Z,78.96
2023-04-10T05:53:04.057Z,78.28
2023-04-10T05:56:11.531Z,78.57
2023-04-10T05:59:15.341Z,77.99
2023-04-10T06:03:00.398Z,77.80
2023-04-10T06:06:09.686Z,76.75
2023-04-10T06:14:39.109Z,74.83
2023-04-10T06:31:42.912Z,66.58
2023-04-10T06:39:25.874Z,54.29
2023-04-10T06:43:10.726Z,59.48
2023-04-10T07:31:10.739Z,53.62
2023-04-10T07:35:04.165Z,55.59
2023-04-10T07:38:26.516Z,55.92
2023-04-10T07:42:08.882Z,55.25
2023-04-10T07:45:18.200Z,54.80
2023-04-10T07:48:28.915Z,54.90
2023-04-10T07:51:57.265Z,54.69
2023-04-10T07:55:06.177Z,53.67
2023-04-10T07:58:19.725Z,53.28
2023-04-10T08:01:50.115Z,53.09
2023-04-10T08:05:14.217Z,53.12
2023-04-10T08:08:29.897Z,51.22
2023-04-10T08:11:49.493Z,52.15
2023-04-10T08:15:08.076Z,52.11
2023-04-10T08:18:26.704Z,51.12
2023-04-10T08:25:34.064Z,50.69
2023-04-10T08:29:06.897Z,49.34
2023-04-10T08:32:41.629Z,48.84
2023-04-10T08:36:01.328Z,47.61
2023-04-10T08:39:23.164Z,47.06
2023-04-10T08:42:33.903Z,47.41
2023-04-10T08:46:01.365Z,47.06
2023-04-10T08:49:52.202Z,46.38
2023-04-10T08:53:14.034Z,46.69
2023-04-10T08:56:48.633Z,43.88
2023-04-10T09:07:49.157Z,42.50
2023-04-10T09:11:09.076Z,43.11
2023-04-10T09:19:55.043Z,43.09
2023-04-10T09:23:42.021Z,42.99
2023-04-10T09:27:53.095Z,42.78
2023-04-10T09:32:07.141Z,41.60
2023-04-10T09:39:58.388Z,40.00
2023-04-10T10:06:41.336Z,38.13
2023-04-10T10:23:27.338Z,38.98
2023-04-10T10:35:22.971Z,38.94
2023-04-10T10:42:45.083Z,38.58
2023-04-10T10:45:56.583Z,39.42
2023-04-10T10:49:01.364Z,38.88
2023-04-10T10:52:38.938Z,40.07
2023-04-10T10:55:42.916Z,40.10
2023-04-10T10:59:12.705Z,40.35
2023-04-10T11:02:28.305Z,39.88
2023-04-10T11:06:15.367Z,40.79
2023-04-10T11:10:11.016Z,41.11
2023-04-10T11:13:28.276Z,41.38
2023-04-10T11:16:51.733Z,41.28
2023-04-10T11:20:25.960Z,42.14
2023-04-10T11:23:37.064Z,42.46
2023-04-10T11:26:48.739Z,42.75
2023-04-10T11:30:38.583Z,42.67
2023-04-10T11:34:05.898Z,42.47
2023-04-10T11:38:20.405Z,42.73
2023-04-10T11:41:12.838Z,43.05
2023-04-10T11:44:31.759Z,42.91
2023-04-10T11:47:48.787Z,42.50
2023-04-10T11:50:57.171Z,43.12
2023-04-10T11:54:56.099Z,43.62
2023-04-10T11:58:32.642Z,43.68
2023-04-10T12:01:44.334Z,44.76
2023-04-10T12:05:10.939Z,45.16
2023-04-10T12:08:17.074Z,46.73
2023-04-10T12:11:37.234Z,47.69
2023-04-10T12:14:49.003Z,48.33
2023-04-10T12:17:55.316Z,47.42
2023-04-10T12:21:04.748Z,47.50
2023-04-10T12:24:52.983Z,47.69
2023-04-10T12:28:05.379Z,47.69
2023-04-10T12:31:43.565Z,47.26
2023-04-10T12:35:04.936Z,46.63
2023-04-10T12:38:08.928Z,46.26
2023-04-10T12:41:12.827Z,46.09
2023-04-10T12:44:17.126Z,46.40
2023-04-10T12:47:26.916Z,46.95
2023-04-10T12:50:32.081Z,46.72
2023-04-10T12:53:56.741Z,46.71
2023-04-10T12:57:09.548Z,46.38
2023-04-10T13:00:15.409Z,46.49
2023-04-10T13:03:19.891Z,46.68
2023-04-10T13:06:22.972Z,46.96
2023-04-10T13:09:26.442Z,46.39
2023-04-10T13:12:30.437Z,46.46
2023-04-10T13:15:35.673Z,45.96
2023-04-10T13:18:44.976Z,45.83
2023-04-10T13:21:56.136Z,45.66
2023-04-10T13:25:06.472Z,45.78
2023-04-10T13:28:12.727Z,45.55
2023-04-10T13:31:40.208Z,45.85
2023-04-10T13:34:53.164Z,46.00
2023-04-10T13:37:59.913Z,45.33
2023-04-10T13:41:04.222Z,45.30
2023-04-10T13:44:10.883Z,45.67
2023-04-10T13:47:40.611Z,45.86
2023-04-10T13:50:44.048Z,46.02
2023-04-10T13:53:49.277Z,45.84
2023-04-10T14:00:47.744Z,46.04
2023-04-10T14:04:01.341Z,44.79
2023-04-10T14:07:12.292Z,44.24
2023-04-10T14:10:36.746Z,43.70
2023-04-10T14:13:41.149Z,43.75
2023-04-10T14:17:09.296Z,43.52
2023-04-10T14:21:08.844Z,43.71
2023-04-10T14:38:42.295Z,42.52
2023-04-10T15:21:49.358Z,42.54
2023-04-10T15:25:23.784Z,41.82
2023-04-10T15:28:50.965Z,42.25
2023-04-10T15:32:38.364Z,41.80
2023-04-10T17:10:43.016Z,40.69
2023-04-10T17:25:53.303Z,41.20
2023-04-10T17:29:35.590Z,41.72
2023-04-10T17:33:22.759Z,42.39
2023-04-10T17:45:24.578Z,42.47
2023-04-10T17:48:52.301Z,42.88
2023-04-10T17:52:06.030Z,44.39
2023-04-10T17:55:42.008Z,45.33
2023-04-10T18:02:32.217Z,53.20
2023-04-10T18:05:49.264Z,55.27
2023-04-10T18:09:14.324Z,59.29
2023-04-10T18:12:19.140Z,57.67
2023-04-10T18:15:37.311Z,57.66
2023-04-10T18:18:47.445Z,59.18
2023-04-10T18:22:19.470Z,58.57
2023-04-10T18:25:30.071Z,55.01
2023-04-10T18:28:38.773Z,55.28
2023-04-10T18:32:13.274Z,57.64
2023-04-10T18:35:20.193Z,57.04
2023-04-10T18:38:53.570Z,58.25
2023-04-10T18:42:08.693Z,58.59
2023-04-10T18:45:20.323Z,59.54
2023-04-10T18:48:27.331Z,59.49
2023-04-10T18:51:39.050Z,60.05
2023-04-10T18:54:45.976Z,61.11
2023-04-10T18:57:56.966Z,62.78
2023-04-10T19:01:00.577Z,63.98
2023-04-10T19:04:10.855Z,63.93
2023-04-10T19:07:36.225Z,63.94
2023-04-10T19:10:43.142Z,63.67
2023-04-10T19:13:50.412Z,63.21
2023-04-10T19:17:08.996Z,63.75
2023-04-10T19:20:16.973Z,64.20
2023-04-10T19:24:14.349Z,67.88
2023-04-10T19:27:51.705Z,66.38
2023-04-10T19:31:01.032Z,67.79
2023-04-10T19:34:10.030Z,67.33
2023-04-10T19:37:13.294Z,67.18
2023-04-10T19:40:19.899Z,67.81
2023-04-10T19:43:26.645Z,69.92
2023-04-10T19:46:29.883Z,68.19
2023-04-10T19:49:33.690Z,67.18
2023-04-10T19:52:35.945Z,67.89
2023-04-10T19:55:40.809Z,69.09
2023-04-10T19:58:49.557Z,68.68
2023-04-10T20:01:55.740Z,70.40
2023-04-10T20:05:01.092Z,69.93
2023-04-10T20:08:06.886Z,69.49
2023-04-10T20:11:15.690Z,70.78
2023-04-10T20:14:25.819Z,70.41
2023-04-10T20:17:40.599Z,71.39
2023-04-10T20:20:47.212Z,72.53
2023-04-10T20:24:00.065Z,70.51
2023-04-10T20:27:18.335Z,71.36
2023-04-10T20:30:27.657Z,71.47
2023-04-10T20:33:34.216Z,70.42
2023-04-10T20:36:40.442Z,70.91
2023-04-10T20:39:47.812Z,69.97
2023-04-10T20:43:05.447Z,71.35
2023-04-10T20:46:33.695Z,71.68
2023-04-10T20:49:40.225Z,71.26
2023-04-10T20:52:57.762Z,72.70
2023-04-10T20:56:19.969Z,73.62
2023-04-10T20:59:37.872Z,73.60
2023-04-10T21:02:52.282Z,73.77
2023-04-10T21:06:00.685Z,73.88
2023-04-10T21:09:23.197Z,73.43
2023-04-10T21:12:34.154Z,74.09
2023-04-10T21:15:54.935Z,73.69
2023-04-10T21:19:38.567Z,75.86
2023-04-10T21:23:06.275Z,75.06
2023-04-10T21:26:28.308Z,76.58
2023-04-10T21:29:39.782Z,76.91
2023-04-10T21:32:52.583Z,77.02
2023-04-10T21:36:14.058Z,78.91
2023-04-10T21:39:25.399Z,77.85
2023-04-10T21:42:33.736Z,77.54
2023-04-10T21:45:50.138Z,78.30
2023-04-10T21:49:04.642Z,80.27
2023-04-10T21:52:27.127Z,80.56
2023-04-10T21:55:36.172Z,77.98
2023-04-10T21:59:02.062Z,79.03
2023-04-10T22:02:13.905Z,78.12
2023-04-10T22:05:18.004Z,78.34
2023-04-10T22:08:22.949Z,78.61
2023-04-10T22:11:39.529Z,80.57
2023-04-10T22:15:06.160Z,80.31
2023-04-10T22:18:20.589Z,80.08
2023-04-10T22:21:35.494Z,79.45
2023-04-10T22:24:50.160Z,79.86
2023-04-10T22:28:15.540Z,80.44
2023-04-10T22:31:27.930Z,79.95
2023-04-10T22:34:38.501Z,80.08
2023-04-10T22:37:57.128Z,79.43
2023-04-10T22:41:13.597Z,80.59
2023-04-10T22:44:29.852Z,79.78
2023-04-10T22:47:47.970Z,79.53
2023-04-10T22:50:57.814Z,78.61
2023-04-10T22:54:06.617Z,78.84
2023-04-10T22:57:13.479Z,79.91
2023-04-10T23:00:30.298Z,79.30
2023-04-10T23:03:39.793Z,79.25
2023-04-10T23:06:48.701Z,79.03
2023-04-10T23:09:57.298Z,79.87
2023-04-10T23:13:06.982Z,80.31
2023-04-10T23:16:19.134Z,79.86
2023-04-10T23:19:26.171Z,81.70
2023-04-10T23:22:32.526Z,81.38
2023-04-10T23:25:35.598Z,81.78
2023-04-10T23:29:03.445Z,82.07
2023-04-10T23:32:08.757Z,82.17
2023-04-10T23:35:11.740Z,82.56
2023-04-10T23:38:15.216Z,82.19
2023-04-10T23:41:27.807Z,81.79
2023-04-10T23:44:35.593Z,81.95
2023-04-10T23:47:44.030Z,80.74
2023-04-10T23:50:47.682Z,81.44
2023-04-10T23:53:53.414Z,81.54
2023-04-10T23:56:56.684Z,80.95
